sensor_id;sensor_type;location;lat;lon;timestamp;pressure;altitude;pressure_sealevel;temperature;humidity
79481;BME280;68944;48.262;14.208;2023-05-08T00:02:14;98776.59;;;10.35;62.31
79481;BME280;68944;48.262;14.208;2023-05-08T00:04:40;98769.91;;;10.19;63.34
79481;BME280;68944;48.262;14.208;2023-05-08T00:07:05;98773.56;;;10.24;63.06
79481;BME280;68944;48.262;14.208;2023-05-08T00:09:31;98780.69;;;10.24;63.31
79481;BME280;68944;48.262;14.208;2023-05-08T00:11:56;98765.44;;;10.12;63.41
79481;BME280;68944;48.262;14.208;2023-05-08T00:14:22;98789.47;;;10.18;62.95
79481;BME280;68944;48.262;14.208;2023-05-08T00:16:47;98784.56;;;10.15;63.42
79481;BME280;68944;48.262;14.208;2023-05-08T00:19:12;98795.16;;;10.15;63.44
79481;BME280;68944;48.262;14.208;2023-05-08T00:21:38;98779.28;;;10.01;63.38
79481;BME280;68944;48.262;14.208;2023-05-08T00:24:04;98773.56;;;10.11;63.84
79481;BME280;68944;48.262;14.208;2023-05-08T00:26:29;98786.63;;;9.99;63.27
79481;BME280;68944;48.262;14.208;2023-05-08T00:28:55;98793.53;;;9.93;63.91
79481;BME280;68944;48.262;14.208;2023-05-08T00:31:20;98746.91;;;9.65;64.06
79481;BME280;68944;48.262;14.208;2023-05-08T00:33:46;98779.91;;;9.89;63.54
79481;BME280;68944;48.262;14.208;2023-05-08T00:36:11;98793.53;;;9.86;63.77
79481;BME280;68944;48.262;14.208;2023-05-08T00:38:40;98787.41;;;9.93;63.27
79481;BME280;68944;48.262;14.208;2023-05-08T00:41:05;98772.97;;;9.75;63.84
79481;BME280;68944;48.262;14.208;2023-05-08T00:43:31;98779.69;;;9.64;64.36
79481;BME280;68944;48.262;14.208;2023-05-08T00:45:59;98792.72;;;9.79;64.50
79481;BME280;68944;48.262;14.208;2023-05-08T00:48:29;98795.19;;;9.87;63.93
79481;BME280;68944;48.262;14.208;2023-05-08T00:50:57;98789.06;;;9.80;64.47
79481;BME280;68944;48.262;14.208;2023-05-08T00:53:25;98789.66;;;9.82;63.47
79481;BME280;68944;48.262;14.208;2023-05-08T00:55:51;98787.84;;;9.76;64.49
79481;BME280;68944;48.262;14.208;2023-05-08T00:58:19;98795.97;;;9.74;63.84
79481;BME280;68944;48.262;14.208;2023-05-08T01:00:45;98792.69;;;9.72;64.21
79481;BME280;68944;48.262;14.208;2023-05-08T01:03:12;98787.41;;;9.65;63.98
79481;BME280;68944;48.262;14.208;2023-05-08T01:05:39;98799.03;;;9.71;64.15
79481;BME280;68944;48.262;14.208;2023-05-08T01:08:04;98786.78;;;9.63;63.98
79481;BME280;68944;48.262;14.208;2023-05-08T01:10:57;98802.28;;;9.73;63.95
79481;BME280;68944;48.262;14.208;2023-05-08T01:13:29;98809.00;;;9.76;64.04
79481;BME280;68944;48.262;14.208;2023-05-08T01:16:14;98801.88;;;9.76;64.33
79481;BME280;68944;48.262;14.208;2023-05-08T01:18:52;98815.91;;;9.90;63.66
79481;BME280;68944;48.262;14.208;2023-05-08T01:21:28;98815.09;;;9.83;63.63
79481;BME280;68944;48.262;14.208;2023-05-08T01:30:03;98822.00;;;9.57;64.76
79481;BME280;68944;48.262;14.208;2023-05-08T01:32:40;98827.09;;;9.59;64.66
79481;BME280;68944;48.262;14.208;2023-05-08T01:37:54;98829.13;;;9.63;64.38
79481;BME280;68944;48.262;14.208;2023-05-08T01:44:23;98842.56;;;9.55;65.10
79481;BME280;68944;48.262;14.208;2023-05-08T01:46:53;98835.41;;;9.55;64.56
79481;BME280;68944;48.262;14.208;2023-05-08T01:49:26;98845.78;;;9.50;64.83
79481;BME280;68944;48.262;14.208;2023-05-08T01:52:34;98843.56;;;9.54;64.93
79481;BME280;68944;48.262;14.208;2023-05-08T01:55:07;98841.91;;;9.53;65.28
79481;BME280;68944;48.262;14.208;2023-05-08T01:57:39;98841.09;;;9.46;65.53
79481;BME280;68944;48.262;14.208;2023-05-08T02:00:26;98847.16;;;9.39;65.16
79481;BME280;68944;48.262;14.208;2023-05-08T02:02:53;98834.78;;;9.47;65.10
79481;BME280;68944;48.262;14.208;2023-05-08T02:05:20;98831.91;;;9.41;65.18
79481;BME280;68944;48.262;14.208;2023-05-08T02:07:48;98840.25;;;9.38;64.88
79481;BME280;68944;48.262;14.208;2023-05-08T02:10:14;98830.88;;;9.36;65.49
79481;BME280;68944;48.262;14.208;2023-05-08T02:12:40;98839.84;;;9.41;65.43
79481;BME280;68944;48.262;14.208;2023-05-08T02:15:08;98832.09;;;9.33;65.55
79481;BME280;68944;48.262;14.208;2023-05-08T02:17:35;98837.38;;;9.33;64.88
79481;BME280;68944;48.262;14.208;2023-05-08T02:20:03;98832.50;;;9.30;64.96
79481;BME280;68944;48.262;14.208;2023-05-08T02:22:30;98815.16;;;9.20;65.69
79481;BME280;68944;48.262;14.208;2023-05-08T02:24:57;98805.16;;;9.09;65.89
79481;BME280;68944;48.262;14.208;2023-05-08T02:27:26;98838.56;;;9.24;65.67
79481;BME280;68944;48.262;14.208;2023-05-08T02:29:55;98837.56;;;9.18;65.59
79481;BME280;68944;48.262;14.208;2023-05-08T02:32:24;98839.75;;;9.14;66.46
79481;BME280;68944;48.262;14.208;2023-05-08T02:34:50;98839.53;;;9.09;66.21
79481;BME280;68944;48.262;14.208;2023-05-08T02:37:18;98841.38;;;9.08;66.67
79481;BME280;68944;48.262;14.208;2023-05-08T02:39:46;98842.56;;;9.06;66.30
79481;BME280;68944;48.262;14.208;2023-05-08T02:42:13;98833.63;;;9.07;66.61
79481;BME280;68944;48.262;14.208;2023-05-08T02:44:39;98830.94;;;9.00;66.97
79481;BME280;68944;48.262;14.208;2023-05-08T02:47:19;98826.50;;;9.01;66.29
79481;BME280;68944;48.262;14.208;2023-05-08T02:49:59;98839.13;;;9.12;66.26
79481;BME280;68944;48.262;14.208;2023-05-08T02:52:31;98835.06;;;9.09;65.93
79481;BME280;68944;48.262;14.208;2023-05-08T02:55:01;98837.09;;;9.07;66.27
79481;BME280;68944;48.262;14.208;2023-05-08T02:57:41;98846.84;;;9.07;66.77
79481;BME280;68944;48.262;14.208;2023-05-08T03:00:15;98847.44;;;9.09;66.44
79481;BME280;68944;48.262;14.208;2023-05-08T03:03:04;98851.13;;;9.08;66.54
79481;BME280;68944;48.262;14.208;2023-05-08T03:05:33;98858.84;;;9.09;66.49
79481;BME280;68944;48.262;14.208;2023-05-08T03:08:03;98857.22;;;9.08;66.67
79481;BME280;68944;48.262;14.208;2023-05-08T03:10:32;98857.69;;;9.19;66.24
79481;BME280;68944;48.262;14.208;2023-05-08T03:13:01;98843.44;;;9.20;66.19
79481;BME280;68944;48.262;14.208;2023-05-08T03:15:53;98866.09;;;9.36;65.59
79481;BME280;68944;48.262;14.208;2023-05-08T03:18:23;98860.38;;;9.39;66.39
79481;BME280;68944;48.262;14.208;2023-05-08T03:20:54;98842.28;;;9.36;65.50
79481;BME280;68944;48.262;14.208;2023-05-08T03:23:22;98852.09;;;9.56;65.67
79481;BME280;68944;48.262;14.208;2023-05-08T03:25:49;98857.59;;;9.54;65.13
79481;BME280;68944;48.262;14.208;2023-05-08T03:28:16;98858.63;;;9.60;65.56
79481;BME280;68944;48.262;14.208;2023-05-08T03:30:42;98842.34;;;9.63;65.43
79481;BME280;68944;48.262;14.208;2023-05-08T03:33:11;98852.56;;;9.66;65.10
79481;BME280;68944;48.262;14.208;2023-05-08T03:35:38;98859.91;;;9.78;65.42
79481;BME280;68944;48.262;14.208;2023-05-08T03:38:05;98861.94;;;9.89;64.72
79481;BME280;68944;48.262;14.208;2023-05-08T03:40:33;98855.41;;;9.85;65.27
79481;BME280;68944;48.262;14.208;2023-05-08T03:43:08;98864.16;;;9.93;65.19
79481;BME280;68944;48.262;14.208;2023-05-08T03:45:36;98857.25;;;9.92;64.74
79481;BME280;68944;48.262;14.208;2023-05-08T03:48:04;98865.63;;;10.02;63.92
79481;BME280;68944;48.262;14.208;2023-05-08T03:50:33;98860.13;;;10.10;63.95
79481;BME280;68944;48.262;14.208;2023-05-08T03:53:00;98862.78;;;10.10;63.87
79481;BME280;68944;48.262;14.208;2023-05-08T03:55:26;98861.34;;;10.01;64.01
79481;BME280;68944;48.262;14.208;2023-05-08T04:01:03;98871.50;;;10.04;63.76
79481;BME280;68944;48.262;14.208;2023-05-08T04:06:36;98866.03;;;9.92;64.03
79481;BME280;68944;48.262;14.208;2023-05-08T04:09:07;98889.03;;;10.05;63.45
79481;BME280;68944;48.262;14.208;2023-05-08T04:12:02;98891.28;;;10.08;63.29
79481;BME280;68944;48.262;14.208;2023-05-08T04:15:09;98892.31;;;10.21;64.21
79481;BME280;68944;48.262;14.208;2023-05-08T04:20:09;98899.03;;;10.17;63.77
79481;BME280;68944;48.262;14.208;2023-05-08T04:22:38;98882.72;;;10.06;63.64
79481;BME280;68944;48.262;14.208;2023-05-08T04:25:06;98892.75;;;10.24;63.84
79481;BME280;68944;48.262;14.208;2023-05-08T04:27:34;98901.06;;;10.21;64.10
79481;BME280;68944;48.262;14.208;2023-05-08T04:30:00;98903.94;;;10.33;63.69
79481;BME280;68944;48.262;14.208;2023-05-08T04:32:29;98909.63;;;10.37;63.88
79481;BME280;68944;48.262;14.208;2023-05-08T04:34:54;98915.53;;;10.39;63.65
79481;BME280;68944;48.262;14.208;2023-05-08T04:37:25;98919.22;;;10.45;63.13
79481;BME280;68944;48.262;14.208;2023-05-08T04:39:52;98925.72;;;10.49;63.08
79481;BME280;68944;48.262;14.208;2023-05-08T04:42:18;98923.31;;;10.47;63.01
79481;BME280;68944;48.262;14.208;2023-05-08T04:44:44;98933.69;;;10.49;63.04
79481;BME280;68944;48.262;14.208;2023-05-08T04:47:11;98925.72;;;10.49;62.58
79481;BME280;68944;48.262;14.208;2023-05-08T04:49:37;98938.63;;;10.52;62.58
79481;BME280;68944;48.262;14.208;2023-05-08T04:52:02;98947.34;;;10.53;62.11
79481;BME280;68944;48.262;14.208;2023-05-08T04:54:28;98948.00;;;10.62;62.46
79481;BME280;68944;48.262;14.208;2023-05-08T04:56:54;98954.50;;;10.66;63.07
79481;BME280;68944;48.262;14.208;2023-05-08T04:59:19;98942.06;;;10.60;62.01
79481;BME280;68944;48.262;14.208;2023-05-08T05:01:48;98943.69;;;10.61;62.44
79481;BME280;68944;48.262;14.208;2023-05-08T05:04:14;98956.13;;;10.74;62.95
79481;BME280;68944;48.262;14.208;2023-05-08T05:06:39;98962.03;;;10.69;62.92
79481;BME280;68944;48.262;14.208;2023-05-08T05:09:05;98953.91;;;10.64;62.14
79481;BME280;68944;48.262;14.208;2023-05-08T05:11:31;98953.06;;;10.70;61.13
79481;BME280;68944;48.262;14.208;2023-05-08T05:13:56;98955.34;;;10.66;61.84
79481;BME280;68944;48.262;14.208;2023-05-08T05:16:22;98951.25;;;10.77;62.57
79481;BME280;68944;48.262;14.208;2023-05-08T05:18:47;98955.09;;;10.88;62.01
79481;BME280;68944;48.262;14.208;2023-05-08T05:21:13;98945.72;;;10.72;61.59
79481;BME280;68944;48.262;14.208;2023-05-08T05:23:39;98964.06;;;10.80;62.49
79481;BME280;68944;48.262;14.208;2023-05-08T05:26:05;98963.44;;;10.85;61.53
79481;BME280;68944;48.262;14.208;2023-05-08T05:28:31;98962.25;;;10.74;61.10
79481;BME280;68944;48.262;14.208;2023-05-08T05:30:57;98961.41;;;10.74;61.74
79481;BME280;68944;48.262;14.208;2023-05-08T05:33:22;98968.75;;;10.78;61.80
79481;BME280;68944;48.262;14.208;2023-05-08T05:35:49;98963.44;;;10.85;61.43
79481;BME280;68944;48.262;14.208;2023-05-08T05:38:14;98950.41;;;10.84;61.31
79481;BME280;68944;48.262;14.208;2023-05-08T05:40:40;98975.88;;;10.98;61.63
79481;BME280;68944;48.262;14.208;2023-05-08T05:43:06;98966.28;;;10.97;61.95
79481;BME280;68944;48.262;14.208;2023-05-08T05:45:32;98974.44;;;11.02;61.62
79481;BME280;68944;48.262;14.208;2023-05-08T05:47:57;98975.47;;;11.15;61.14
79481;BME280;68944;48.262;14.208;2023-05-08T05:50:24;98975.66;;;11.13;60.74
79481;BME280;68944;48.262;14.208;2023-05-08T05:52:53;98982.16;;;11.18;61.02
79481;BME280;68944;48.262;14.208;2023-05-08T05:55:19;98984.63;;;11.19;60.34
79481;BME280;68944;48.262;14.208;2023-05-08T05:57:46;98990.31;;;11.30;60.51
79481;BME280;68944;48.262;14.208;2023-05-08T06:00:13;98971.38;;;11.19;60.65
79481;BME280;68944;48.262;14.208;2023-05-08T06:02:46;98988.69;;;11.35;59.77
79481;BME280;68944;48.262;14.208;2023-05-08T06:05:14;98994.38;;;11.32;60.58
79481;BME280;68944;48.262;14.208;2023-05-08T06:07:39;98998.03;;;11.45;60.78
79481;BME280;68944;48.262;14.208;2023-05-08T06:10:06;98989.47;;;11.43;60.60
79481;BME280;68944;48.262;14.208;2023-05-08T06:12:31;99001.66;;;11.57;59.89
79481;BME280;68944;48.262;14.208;2023-05-08T06:14:58;99004.13;;;11.59;60.03
79481;BME280;68944;48.262;14.208;2023-05-08T06:17:24;98994.31;;;11.53;59.93
79481;BME280;68944;48.262;14.208;2023-05-08T06:19:49;99005.34;;;11.63;59.89
79481;BME280;68944;48.262;14.208;2023-05-08T06:22:18;98995.91;;;11.67;59.47
79481;BME280;68944;48.262;14.208;2023-05-08T06:24:47;98999.59;;;11.73;59.46
79481;BME280;68944;48.262;14.208;2023-05-08T06:27:13;98994.50;;;11.65;59.01
79481;BME280;68944;48.262;14.208;2023-05-08T06:29:38;98999.44;;;11.61;59.56
79481;BME280;68944;48.262;14.208;2023-05-08T06:32:04;98987.16;;;11.60;59.36
79481;BME280;68944;48.262;14.208;2023-05-08T06:34:29;99010.41;;;11.65;59.40
79481;BME280;68944;48.262;14.208;2023-05-08T06:36:55;98999.59;;;11.73;59.11
79481;BME280;68944;48.262;14.208;2023-05-08T06:39:21;99000.56;;;11.79;59.25
79481;BME280;68944;48.262;14.208;2023-05-08T06:41:46;98995.25;;;11.79;59.13
79481;BME280;68944;48.262;14.208;2023-05-08T06:44:21;99008.91;;;11.82;59.01
79481;BME280;68944;48.262;14.208;2023-05-08T06:46:47;99007.09;;;11.83;58.36
79481;BME280;68944;48.262;14.208;2023-05-08T06:49:12;99006.03;;;11.91;58.53
79481;BME280;68944;48.262;14.208;2023-05-08T06:51:38;99013.38;;;11.95;58.86
79481;BME280;68944;48.262;14.208;2023-05-08T06:54:03;99009.72;;;11.90;58.63
79481;BME280;68944;48.262;14.208;2023-05-08T06:56:35;99020.25;;;12.03;58.56
79481;BME280;68944;48.262;14.208;2023-05-08T06:59:00;99006.16;;;12.10;58.78
79481;BME280;68944;48.262;14.208;2023-05-08T07:01:26;99011.66;;;12.15;57.85
79481;BME280;68944;48.262;14.208;2023-05-08T07:03:52;99009.16;;;12.27;57.01
79481;BME280;68944;48.262;14.208;2023-05-08T07:06:17;99016.97;;;12.22;57.56
79481;BME280;68944;48.262;14.208;2023-05-08T07:08:43;99021.81;;;12.25;57.28
79481;BME280;68944;48.262;14.208;2023-05-08T07:11:08;99026.13;;;12.26;57.76
79481;BME280;68944;48.262;14.208;2023-05-08T07:13:36;99015.66;;;12.31;56.90
79481;BME280;68944;48.262;14.208;2023-05-08T07:16:02;99012.44;;;12.22;56.15
79481;BME280;68944;48.262;14.208;2023-05-08T07:18:29;99024.34;;;12.45;55.76
79481;BME280;68944;48.262;14.208;2023-05-08T07:20:55;99025.78;;;12.48;55.82
79481;BME280;68944;48.262;14.208;2023-05-08T07:23:20;99032.47;;;12.57;56.43
79481;BME280;68944;48.262;14.208;2023-05-08T07:25:46;99027.81;;;12.78;55.83
79481;BME280;68944;48.262;14.208;2023-05-08T07:28:12;99010.69;;;12.74;55.01
79481;BME280;68944;48.262;14.208;2023-05-08T07:30:37;99021.47;;;12.79;54.57
79481;BME280;68944;48.262;14.208;2023-05-08T07:33:03;99027.44;;;13.00;54.50
79481;BME280;68944;48.262;14.208;2023-05-08T07:35:29;99024.38;;;13.22;54.81
79481;BME280;68944;48.262;14.208;2023-05-08T07:37:54;99034.03;;;13.42;54.18
79481;BME280;68944;48.262;14.208;2023-05-08T07:40:19;99019.78;;;13.74;53.49
79481;BME280;68944;48.262;14.208;2023-05-08T07:42:45;99021.03;;;13.71;53.88
79481;BME280;68944;48.262;14.208;2023-05-08T07:45:12;99029.59;;;13.92;53.26
79481;BME280;68944;48.262;14.208;2023-05-08T07:47:38;99031.16;;;14.12;53.06
79481;BME280;68944;48.262;14.208;2023-05-08T07:50:04;99019.41;;;14.20;51.78
79481;BME280;68944;48.262;14.208;2023-05-08T07:52:30;99009.59;;;14.32;51.29
79481;BME280;68944;48.262;14.208;2023-05-08T07:54:56;99018.22;;;14.47;51.23
79481;BME280;68944;48.262;14.208;2023-05-08T07:57:22;99013.69;;;14.47;51.00
79481;BME280;68944;48.262;14.208;2023-05-08T07:59:48;99020.34;;;14.68;51.16
79481;BME280;68944;48.262;14.208;2023-05-08T08:02:13;99027.41;;;14.75;50.27
79481;BME280;68944;48.262;14.208;2023-05-08T08:04:39;99002.63;;;14.86;50.10
79481;BME280;68944;48.262;14.208;2023-05-08T08:07:05;99025.97;;;15.03;50.16
79481;BME280;68944;48.262;14.208;2023-05-08T08:09:30;99012.84;;;15.26;49.51
79481;BME280;68944;48.262;14.208;2023-05-08T08:11:56;99009.84;;;15.34;48.97
79481;BME280;68944;48.262;14.208;2023-05-08T08:14:22;99018.19;;;15.26;49.67
79481;BME280;68944;48.262;14.208;2023-05-08T08:16:47;99006.22;;;15.40;48.67
79481;BME280;68944;48.262;14.208;2023-05-08T08:19:13;99016.66;;;15.42;48.24
79481;BME280;68944;48.262;14.208;2023-05-08T08:21:42;99006.44;;;15.51;48.38
79481;BME280;68944;48.262;14.208;2023-05-08T08:24:08;99005.97;;;15.54;47.80
79481;BME280;68944;48.262;14.208;2023-05-08T08:26:33;99018.41;;;15.48;48.35
79481;BME280;68944;48.262;14.208;2023-05-08T08:28:59;99017.91;;;15.51;48.56
79481;BME280;68944;48.262;14.208;2023-05-08T08:31:25;99016.91;;;15.40;48.52
79481;BME280;68944;48.262;14.208;2023-05-08T08:33:50;99015.50;;;15.26;48.28
79481;BME280;68944;48.262;14.208;2023-05-08T08:36:15;99024.47;;;15.31;48.40
79481;BME280;68944;48.262;14.208;2023-05-08T08:38:41;99028.84;;;15.38;48.50
79481;BME280;68944;48.262;14.208;2023-05-08T08:41:07;99024.44;;;15.55;48.74
79481;BME280;68944;48.262;14.208;2023-05-08T08:43:33;99026.13;;;15.74;47.53
79481;BME280;68944;48.262;14.208;2023-05-08T08:46:02;99033.31;;;15.85;48.39
79481;BME280;68944;48.262;14.208;2023-05-08T08:48:36;99032.78;;;16.00;47.78
79481;BME280;68944;48.262;14.208;2023-05-08T08:51:05;99023.63;;;15.96;47.62
79481;BME280;68944;48.262;14.208;2023-05-08T08:53:42;99026.75;;;16.05;46.83
79481;BME280;68944;48.262;14.208;2023-05-08T08:56:09;99021.22;;;16.24;46.12
79481;BME280;68944;48.262;14.208;2023-05-08T08:58:39;99022.53;;;16.38;47.40
79481;BME280;68944;48.262;14.208;2023-05-08T09:01:08;99021.31;;;16.46;47.12
79481;BME280;68944;48.262;14.208;2023-05-08T09:03:37;99028.41;;;16.53;46.22
79481;BME280;68944;48.262;14.208;2023-05-08T09:06:03;99025.47;;;16.54;45.60
79481;BME280;68944;48.262;14.208;2023-05-08T09:08:29;99024.41;;;16.38;45.70
79481;BME280;68944;48.262;14.208;2023-05-08T09:10:55;99022.53;;;16.38;46.79
79481;BME280;68944;48.262;14.208;2023-05-08T09:13:21;99012.78;;;16.32;45.93
79481;BME280;68944;48.262;14.208;2023-05-08T09:15:46;99024.25;;;16.45;46.50
79481;BME280;68944;48.262;14.208;2023-05-08T09:18:14;99019.22;;;16.48;47.08
79481;BME280;68944;48.262;14.208;2023-05-08T09:20:39;99018.34;;;16.60;46.34
79481;BME280;68944;48.262;14.208;2023-05-08T09:23:05;99021.19;;;16.70;46.23
79481;BME280;68944;48.262;14.208;2023-05-08T09:25:46;99013.78;;;16.95;46.60
79481;BME280;68944;48.262;14.208;2023-05-08T09:28:24;99012.91;;;16.89;45.30
79481;BME280;68944;48.262;14.208;2023-05-08T09:30:58;99006.91;;;16.82;45.83
79481;BME280;68944;48.262;14.208;2023-05-08T09:33:25;98993.44;;;16.94;45.14
79481;BME280;68944;48.262;14.208;2023-05-08T09:35:52;99000.44;;;16.78;45.42
79481;BME280;68944;48.262;14.208;2023-05-08T09:38:35;99002.59;;;16.98;45.83
79481;BME280;68944;48.262;14.208;2023-05-08T09:41:06;98986.84;;;17.02;45.84
79481;BME280;68944;48.262;14.208;2023-05-08T09:43:33;98991.22;;;17.25;44.86
79481;BME280;68944;48.262;14.208;2023-05-08T09:46:19;98998.78;;;17.28;44.58
79481;BME280;68944;48.262;14.208;2023-05-08T09:48:46;98988.72;;;17.19;45.65
79481;BME280;68944;48.262;14.208;2023-05-08T09:51:12;98990.09;;;17.21;45.15
79481;BME280;68944;48.262;14.208;2023-05-08T09:53:37;98981.72;;;17.35;44.40
79481;BME280;68944;48.262;14.208;2023-05-08T09:56:04;98987.06;;;17.35;45.29
79481;BME280;68944;48.262;14.208;2023-05-08T09:58:40;98990.63;;;17.40;45.26
79481;BME280;68944;48.262;14.208;2023-05-08T10:01:07;98991.84;;;17.55;44.97
79481;BME280;68944;48.262;14.208;2023-05-08T10:03:51;98990.03;;;17.16;44.39
79481;BME280;68944;48.262;14.208;2023-05-08T10:06:16;98993.72;;;17.32;44.37
79481;BME280;68944;48.262;14.208;2023-05-08T10:08:42;98990.50;;;17.13;45.58
79481;BME280;68944;48.262;14.208;2023-05-08T10:13:40;98989.81;;;17.40;44.51
79481;BME280;68944;48.262;14.208;2023-05-08T10:16:07;98971.00;;;17.35;44.05
79481;BME280;68944;48.262;14.208;2023-05-08T10:18:36;98978.47;;;17.33;44.83
79481;BME280;68944;48.262;14.208;2023-05-08T10:21:05;98974.00;;;17.38;44.28
79481;BME280;68944;48.262;14.208;2023-05-08T10:23:33;98975.41;;;17.46;43.97
79481;BME280;68944;48.262;14.208;2023-05-08T10:26:07;98965.91;;;17.33;44.93
79481;BME280;68944;48.262;14.208;2023-05-08T10:31:06;98967.75;;;17.55;43.80
79481;BME280;68944;48.262;14.208;2023-05-08T10:33:34;98960.41;;;17.45;44.09
79481;BME280;68944;48.262;14.208;2023-05-08T10:36:00;98963.91;;;17.68;44.51
79481;BME280;68944;48.262;14.208;2023-05-08T10:38:27;98969.75;;;17.65;44.56
79481;BME280;68944;48.262;14.208;2023-05-08T10:40:55;98965.75;;;17.68;44.14
79481;BME280;68944;48.262;14.208;2023-05-08T10:43:24;98964.09;;;17.61;44.26
79481;BME280;68944;48.262;14.208;2023-05-08T10:45:54;98963.84;;;17.40;44.66
79481;BME280;68944;48.262;14.208;2023-05-08T10:49:13;98955.81;;;17.40;44.73
79481;BME280;68944;48.262;14.208;2023-05-08T10:51:31;98953.13;;;17.40;44.51
79481;BME280;68944;48.262;14.208;2023-05-08T10:54:29;98950.94;;;17.37;44.86
79481;BME280;68944;48.262;14.208;2023-05-08T10:57:11;98944.22;;;17.35;44.69
79481;BME280;68944;48.262;14.208;2023-05-08T10:59:37;98935.31;;;17.29;44.05
79481;BME280;68944;48.262;14.208;2023-05-08T11:02:04;98929.69;;;17.08;45.12
79481;BME280;68944;48.262;14.208;2023-05-08T11:04:31;98940.22;;;17.15;45.65
79481;BME280;68944;48.262;14.208;2023-05-08T11:06:57;98936.63;;;17.26;44.64
79481;BME280;68944;48.262;14.208;2023-05-08T11:09:44;98927.28;;;17.29;45.03
79481;BME280;68944;48.262;14.208;2023-05-08T11:12:28;98935.19;;;17.63;44.58
79481;BME280;68944;48.262;14.208;2023-05-08T11:15:00;98925.88;;;17.71;43.95
79481;BME280;68944;48.262;14.208;2023-05-08T11:17:26;98925.97;;;18.10;43.32
79481;BME280;68944;48.262;14.208;2023-05-08T11:20:00;98925.59;;;18.67;42.16
79481;BME280;68944;48.262;14.208;2023-05-08T11:22:27;98928.13;;;18.84;41.85
79481;BME280;68944;48.262;14.208;2023-05-08T11:25:09;98924.59;;;19.21;42.42
79481;BME280;68944;48.262;14.208;2023-05-08T11:38:18;98922.81;;;21.10;39.26
79481;BME280;68944;48.262;14.208;2023-05-08T11:40:53;98920.09;;;21.21;38.14
79481;BME280;68944;48.262;14.208;2023-05-08T11:48:31;98911.41;;;21.85;37.36
79481;BME280;68944;48.262;14.208;2023-05-08T11:50:58;98896.66;;;21.72;37.96
79481;BME280;68944;48.262;14.208;2023-05-08T11:53:23;98902.38;;;21.60;37.55
79481;BME280;68944;48.262;14.208;2023-05-08T11:55:52;98857.16;;;20.96;38.93
79481;BME280;68944;48.262;14.208;2023-05-08T11:58:18;98894.97;;;21.31;37.85
79481;BME280;68944;48.262;14.208;2023-05-08T12:00:45;98899.41;;;20.95;38.77
79481;BME280;68944;48.262;14.208;2023-05-08T12:03:12;98890.34;;;20.70;38.70
79481;BME280;68944;48.262;14.208;2023-05-08T12:05:38;98890.59;;;20.74;38.43
79481;BME280;68944;48.262;14.208;2023-05-08T12:08:11;98893.53;;;20.83;38.53
79481;BME280;68944;48.262;14.208;2023-05-08T12:10:56;98893.09;;;21.31;37.86
79481;BME280;68944;48.262;14.208;2023-05-08T12:13:26;98886.72;;;21.67;37.68
79481;BME280;68944;48.262;14.208;2023-05-08T12:15:53;98897.91;;;21.90;36.40
79481;BME280;68944;48.262;14.208;2023-05-08T12:18:21;98892.03;;;22.18;37.82
79481;BME280;68944;48.262;14.208;2023-05-08T12:20:55;98880.53;;;22.37;37.47
79481;BME280;68944;48.262;14.208;2023-05-08T12:23:21;98887.47;;;22.98;36.05
79481;BME280;68944;48.262;14.208;2023-05-08T12:25:50;98878.72;;;23.06;35.60
79481;BME280;68944;48.262;14.208;2023-05-08T12:28:16;98896.47;;;23.56;34.51
79481;BME280;68944;48.262;14.208;2023-05-08T12:30:41;98883.88;;;23.66;34.64
79481;BME280;68944;48.262;14.208;2023-05-08T12:33:07;98872.00;;;24.00;34.97
79481;BME280;68944;48.262;14.208;2023-05-08T12:35:33;98874.13;;;24.03;34.20
79481;BME280;68944;48.262;14.208;2023-05-08T12:38:03;98889.16;;;24.43;35.36
79481;BME280;68944;48.262;14.208;2023-05-08T12:40:32;98881.47;;;24.64;33.62
79481;BME280;68944;48.262;14.208;2023-05-08T12:43:00;98884.38;;;24.96;33.05
79481;BME280;68944;48.262;14.208;2023-05-08T12:45:28;98880.97;;;25.56;33.42
79481;BME280;68944;48.262;14.208;2023-05-08T12:48:02;98875.38;;;27.03;30.80
79481;BME280;68944;48.262;14.208;2023-05-08T12:50:28;98889.59;;;28.24;28.77
79481;BME280;68944;48.262;14.208;2023-05-08T12:53:01;98881.28;;;30.06;25.92
79481;BME280;68944;48.262;14.208;2023-05-08T12:55:29;98886.72;;;31.16;25.52
79481;BME280;68944;48.262;14.208;2023-05-08T13:01:07;98873.63;;;32.24;23.67
79481;BME280;68944;48.262;14.208;2023-05-08T13:03:36;98873.66;;;33.29;23.43
79481;BME280;68944;48.262;14.208;2023-05-08T13:06:02;98869.22;;;32.88;23.58
79481;BME280;68944;48.262;14.208;2023-05-08T13:08:33;98872.47;;;32.09;24.52
79481;BME280;68944;48.262;14.208;2023-05-08T13:11:01;98880.31;;;31.11;25.97
79481;BME280;68944;48.262;14.208;2023-05-08T13:13:29;98870.84;;;30.21;26.85
79481;BME280;68944;48.262;14.208;2023-05-08T13:15:56;98849.19;;;30.28;26.29
79481;BME280;68944;48.262;14.208;2023-05-08T13:18:25;98859.94;;;30.59;25.70
79481;BME280;68944;48.262;14.208;2023-05-08T13:20:55;98857.00;;;30.39;25.26
79481;BME280;68944;48.262;14.208;2023-05-08T13:23:21;98859.31;;;29.47;26.93
79481;BME280;68944;48.262;14.208;2023-05-08T13:25:47;98845.44;;;29.18;27.14
79481;BME280;68944;48.262;14.208;2023-05-08T13:28:12;98851.25;;;29.08;27.25
79481;BME280;68944;48.262;14.208;2023-05-08T13:30:38;98854.72;;;29.17;26.92
79481;BME280;68944;48.262;14.208;2023-05-08T13:33:04;98853.81;;;29.13;26.56
79481;BME280;68944;48.262;14.208;2023-05-08T13:35:30;98855.56;;;29.52;26.56
79481;BME280;68944;48.262;14.208;2023-05-08T13:37:56;98849.25;;;30.66;24.79
79481;BME280;68944;48.262;14.208;2023-05-08T13:40:22;98837.06;;;31.30;25.22
79481;BME280;68944;48.262;14.208;2023-05-08T13:42:48;98845.97;;;31.84;23.84
79481;BME280;68944;48.262;14.208;2023-05-08T13:45:14;98847.81;;;32.25;23.57
79481;BME280;68944;48.262;14.208;2023-05-08T13:47:40;98838.97;;;32.64;23.23